sensor_id;sensor_type;location;lat;lon;timestamp;pressure;altitude;pressure_sealevel;temperature;humidity
79174;BME280;68599;49.142;9.124;2023-12-20T00:01:55;99809.21;;;6.87;72.72
79174;BME280;68599;49.142;9.124;2023-12-20T00:04:22;99804.04;;;6.85;73.19
79174;BME280;68599;49.142;9.124;2023-12-20T00:06:49;99804.21;;;6.84;73.04
79174;BME280;68599;49.142;9.124;2023-12-20T00:09:16;99799.55;;;6.86;73.53
79174;BME280;68599;49.142;9.124;2023-12-20T00:11:43;99800.08;;;6.82;73.78
79174;BME280;68599;49.142;9.124;2023-12-20T00:14:09;99795.08;;;6.84;73.39
79174;BME280;68599;49.142;9.124;2023-12-20T00:16:36;99794.19;;;6.79;73.14
79174;BME280;68599;49.142;9.124;2023-12-20T00:19:03;99787.56;;;6.84;72.80
79174;BME280;68599;49.142;9.124;2023-12-20T00:21:29;99784.50;;;6.80;73.22
79174;BME280;68599;49.142;9.124;2023-12-20T00:23:56;99786.48;;;6.84;73.73
79174;BME280;68599;49.142;9.124;2023-12-20T00:26:22;99787.73;;;6.71;74.40
79174;BME280;68599;49.142;9.124;2023-12-20T00:28:49;99787.71;;;6.68;74.52
79174;BME280;68599;49.142;9.124;2023-12-20T00:31:15;99786.11;;;6.64;74.96
79174;BME280;68599;49.142;9.124;2023-12-20T00:33:42;99784.66;;;6.63;74.49
79174;BME280;68599;49.142;9.124;2023-12-20T00:36:10;99781.09;;;6.64;74.66
79174;BME280;68599;49.142;9.124;2023-12-20T00:38:37;99780.20;;;6.65;74.53
79174;BME280;68599;49.142;9.124;2023-12-20T00:41:03;99775.91;;;6.64;74.60
79174;BME280;68599;49.142;9.124;2023-12-20T00:43:30;99774.30;;;6.60;74.94
79174;BME280;68599;49.142;9.124;2023-12-20T00:45:57;99775.01;;;6.63;74.53
79174;BME280;68599;49.142;9.124;2023-12-20T00:48:23;99778.23;;;6.60;75.70
79174;BME280;68599;49.142;9.124;2023-12-20T00:50:50;99775.90;;;6.59;75.73
79174;BME280;68599;49.142;9.124;2023-12-20T00:53:17;99771.61;;;6.61;75.67
79174;BME280;68599;49.142;9.124;2023-12-20T00:55:43;99773.04;;;6.66;75.00
79174;BME280;68599;49.142;9.124;2023-12-20T00:58:11;99770.71;;;6.69;74.93
79174;BME280;68599;49.142;9.124;2023-12-20T01:00:38;99765.16;;;6.69;75.16
79174;BME280;68599;49.142;9.124;2023-12-20T01:03:08;99759.61;;;6.74;74.99
79174;BME280;68599;49.142;9.124;2023-12-20T01:05:34;99755.12;;;6.71;75.34
79174;BME280;68599;49.142;9.124;2023-12-20T01:08:01;99757.11;;;6.73;75.77
79174;BME280;68599;49.142;9.124;2023-12-20T01:10:29;99756.73;;;6.66;76.12
79174;BME280;68599;49.142;9.124;2023-12-20T01:12:56;99756.56;;;6.68;76.37
79174;BME280;68599;49.142;9.124;2023-12-20T01:15:22;99763.73;;;6.60;76.82
79174;BME280;68599;49.142;9.124;2023-12-20T01:17:49;99768.20;;;6.59;76.78
79174;BME280;68599;49.142;9.124;2023-12-20T01:20:16;99769.45;;;6.51;77.20
79174;BME280;68599;49.142;9.124;2023-12-20T01:22:43;99769.45;;;6.46;77.49
79174;BME280;68599;49.142;9.124;2023-12-20T01:25:12;99771.05;;;6.46;77.65
79174;BME280;68599;49.142;9.124;2023-12-20T01:27:39;99767.46;;;6.46;77.57
79174;BME280;68599;49.142;9.124;2023-12-20T01:30:06;99771.22;;;6.39;77.80
79174;BME280;68599;49.142;9.124;2023-12-20T01:32:33;99770.16;;;6.54;77.84
79174;BME280;68599;49.142;9.124;2023-12-20T01:35:00;99767.45;;;6.42;77.84
79174;BME280;68599;49.142;9.124;2023-12-20T01:37:29;99760.67;;;6.46;77.88
79174;BME280;68599;49.142;9.124;2023-12-20T01:39:56;99758.33;;;6.42;77.97
79174;BME280;68599;49.142;9.124;2023-12-20T01:42:22;99757.44;;;6.44;78.19
79174;BME280;68599;49.142;9.124;2023-12-20T01:44:49;99759.05;;;6.48;78.00
79174;BME280;68599;49.142;9.124;2023-12-20T01:47:16;99756.54;;;6.42;78.30
79174;BME280;68599;49.142;9.124;2023-12-20T01:49:43;99750.45;;;6.45;78.15
79174;BME280;68599;49.142;9.124;2023-12-20T01:52:10;99750.10;;;6.36;78.53
79174;BME280;68599;49.142;9.124;2023-12-20T01:54:40;99749.21;;;6.41;78.47
79174;BME280;68599;49.142;9.124;2023-12-20T01:57:08;99747.76;;;6.34;79.01
79174;BME280;68599;49.142;9.124;2023-12-20T01:59:37;99740.79;;;6.40;78.72
79174;BME280;68599;49.142;9.124;2023-12-20T02:02:07;99737.77;;;6.46;78.31
79174;BME280;68599;49.142;9.124;2023-12-20T02:04:34;99736.86;;;6.45;78.46
79174;BME280;68599;49.142;9.124;2023-12-20T02:07:01;99737.02;;;6.44;78.58
79174;BME280;68599;49.142;9.124;2023-12-20T02:09:29;99737.58;;;6.47;78.33
79174;BME280;68599;49.142;9.124;2023-12-20T02:11:55;99740.42;;;6.39;78.71
79174;BME280;68599;49.142;9.124;2023-12-20T02:14:22;99744.73;;;6.37;78.90
79174;BME280;68599;49.142;9.124;2023-12-20T02:16:49;99740.08;;;6.41;78.70
79174;BME280;68599;49.142;9.124;2023-12-20T02:19:17;99744.36;;;6.41;78.71
79174;BME280;68599;49.142;9.124;2023-12-20T02:21:44;99742.93;;;6.33;78.90
79174;BME280;68599;49.142;9.124;2023-12-20T02:24:10;99742.77;;;6.42;78.77
79174;BME280;68599;49.142;9.124;2023-12-20T02:26:37;99735.96;;;6.43;78.61
79174;BME280;68599;49.142;9.124;2023-12-20T02:29:04;99737.37;;;6.36;79.25
79174;BME280;68599;49.142;9.124;2023-12-20T02:31:30;99735.77;;;6.49;78.49
79174;BME280;68599;49.142;9.124;2023-12-20T02:33:57;99738.46;;;6.43;78.68
79174;BME280;68599;49.142;9.124;2023-12-20T02:36:24;99732.38;;;6.43;78.65
79174;BME280;68599;49.142;9.124;2023-12-20T02:38:50;99728.09;;;6.42;78.65
79174;BME280;68599;49.142;9.124;2023-12-20T02:41:17;99728.63;;;6.38;78.83
79174;BME280;68599;49.142;9.124;2023-12-20T02:43:45;99723.79;;;6.34;79.07
79174;BME280;68599;49.142;9.124;2023-12-20T02:46:12;99730.58;;;6.37;78.92
79174;BME280;68599;49.142;9.124;2023-12-20T02:48:40;99725.20;;;6.29;79.20
79174;BME280;68599;49.142;9.124;2023-12-20T02:51:07;99729.86;;;6.34;78.75
79174;BME280;68599;49.142;9.124;2023-12-20T02:53:33;99727.36;;;6.39;78.38
79174;BME280;68599;49.142;9.124;2023-12-20T02:56:00;99728.80;;;6.34;78.50
79174;BME280;68599;49.142;9.124;2023-12-20T02:58:26;99733.27;;;6.36;78.22
79174;BME280;68599;49.142;9.124;2023-12-20T03:00:53;99730.58;;;6.32;78.66
79174;BME280;68599;49.142;9.124;2023-12-20T03:03:19;99733.98;;;6.32;78.55
79174;BME280;68599;49.142;9.124;2023-12-20T03:05:46;99737.74;;;6.39;78.46
79174;BME280;68599;49.142;9.124;2023-12-20T03:08:13;99733.28;;;6.44;78.23
79174;BME280;68599;49.142;9.124;2023-12-20T03:10:40;99735.59;;;6.38;78.52
79174;BME280;68599;49.142;9.124;2023-12-20T03:13:06;99742.05;;;6.42;78.74
79174;BME280;68599;49.142;9.124;2023-12-20T03:15:33;99743.48;;;6.36;78.71
79174;BME280;68599;49.142;9.124;2023-12-20T03:17:59;99745.80;;;6.36;78.89
79174;BME280;68599;49.142;9.124;2023-12-20T03:20:26;99747.95;;;6.38;78.87
79174;BME280;68599;49.142;9.124;2023-12-20T03:22:52;99750.09;;;6.38;78.79
79174;BME280;68599;49.142;9.124;2023-12-20T03:25:19;99748.14;;;6.38;78.77
79174;BME280;68599;49.142;9.124;2023-12-20T03:27:45;99750.98;;;6.33;78.97
79174;BME280;68599;49.142;9.124;2023-12-20T03:30:13;99751.89;;;6.38;78.69
79174;BME280;68599;49.142;9.124;2023-12-20T03:32:39;99749.20;;;6.40;78.72
79174;BME280;68599;49.142;9.124;2023-12-20T03:35:06;99749.73;;;6.37;78.79
79174;BME280;68599;49.142;9.124;2023-12-20T03:37:33;99745.98;;;6.43;78.66
79174;BME280;68599;49.142;9.124;2023-12-20T03:40:00;99741.49;;;6.33;78.95
79174;BME280;68599;49.142;9.124;2023-12-20T03:42:27;99748.30;;;6.38;78.70
79174;BME280;68599;49.142;9.124;2023-12-20T03:44:53;99757.60;;;6.34;79.19
79174;BME280;68599;49.142;9.124;2023-12-20T03:47:20;99756.52;;;6.24;79.43
79174;BME280;68599;49.142;9.124;2023-12-20T03:49:46;99745.79;;;6.32;79.02
79174;BME280;68599;49.142;9.124;2023-12-20T03:52:13;99747.76;;;6.29;78.89
79174;BME280;68599;49.142;9.124;2023-12-20T03:54:40;99746.49;;;6.27;79.13
79174;BME280;68599;49.142;9.124;2023-12-20T03:57:08;99751.67;;;6.22;79.14
79174;BME280;68599;49.142;9.124;2023-12-20T03:59:36;99746.86;;;6.31;79.14
79174;BME280;68599;49.142;9.124;2023-12-20T04:02:03;99742.92;;;6.30;78.95
79174;BME280;68599;49.142;9.124;2023-12-20T04:04:30;99736.30;;;6.27;78.85
79174;BME280;68599;49.142;9.124;2023-12-20T04:06:57;99744.53;;;6.27;79.07
79174;BME280;68599;49.142;9.124;2023-12-20T04:09:24;99736.30;;;6.28;78.84
79174;BME280;68599;49.142;9.124;2023-12-20T04:11:50;99740.23;;;6.33;78.37
79174;BME280;68599;49.142;9.124;2023-12-20T04:14:17;99753.11;;;6.26;78.66
79174;BME280;68599;49.142;9.124;2023-12-20T04:16:44;99751.30;;;6.17;79.05
79174;BME280;68599;49.142;9.124;2023-12-20T04:19:13;99764.03;;;6.28;78.86
79174;BME280;68599;49.142;9.124;2023-12-20T04:21:39;99766.68;;;6.20;79.18
79174;BME280;68599;49.142;9.124;2023-12-20T04:24:06;99766.36;;;6.28;78.92
79174;BME280;68599;49.142;9.124;2023-12-20T04:26:33;99760.43;;;6.22;79.13
79174;BME280;68599;49.142;9.124;2023-12-20T04:28:59;99763.13;;;6.23;79.01
79174;BME280;68599;49.142;9.124;2023-12-20T04:31:26;99775.66;;;6.28;79.13
79174;BME280;68599;49.142;9.124;2023-12-20T04:33:53;99777.81;;;6.25;79.38
79174;BME280;68599;49.142;9.124;2023-12-20T04:36:19;99775.12;;;6.25;79.24
79174;BME280;68599;49.142;9.124;2023-12-20T04:38:46;99778.88;;;6.25;79.34
79174;BME280;68599;49.142;9.124;2023-12-20T04:41:12;99787.83;;;6.24;79.40
79174;BME280;68599;49.142;9.124;2023-12-20T04:43:42;99786.39;;;6.27;79.41
79174;BME280;68599;49.142;9.124;2023-12-20T04:46:09;99780.85;;;6.26;79.51
79174;BME280;68599;49.142;9.124;2023-12-20T04:48:36;99781.73;;;6.22;79.83
79174;BME280;68599;49.142;9.124;2023-12-20T04:51:03;99771.36;;;6.22;79.82
79174;BME280;68599;49.142;9.124;2023-12-20T04:53:29;99776.20;;;6.25;79.51
79174;BME280;68599;49.142;9.124;2023-12-20T04:55:56;99785.31;;;6.24;79.78
79174;BME280;68599;49.142;9.124;2023-12-20T04:58:23;99800.70;;;6.25;79.90
79174;BME280;68599;49.142;9.124;2023-12-20T05:00:50;99809.13;;;6.27;80.18
79174;BME280;68599;49.142;9.124;2023-12-20T05:03:17;99808.04;;;6.20;80.44
79174;BME280;68599;49.142;9.124;2023-12-20T05:05:43;99803.02;;;6.24;80.46
79174;BME280;68599;49.142;9.124;2023-12-20T05:08:10;99805.17;;;6.24;80.38
79174;BME280;68599;49.142;9.124;2023-12-20T05:10:37;99801.98;;;6.25;80.49
79174;BME280;68599;49.142;9.124;2023-12-20T05:13:03;99810.71;;;6.22;80.58
79174;BME280;68599;49.142;9.124;2023-12-20T05:15:30;99822.70;;;6.21;80.46
79174;BME280;68599;49.142;9.124;2023-12-20T05:17:56;99821.13;;;6.28;80.43
79174;BME280;68599;49.142;9.124;2023-12-20T05:20:23;99826.66;;;6.29;80.15
79174;BME280;68599;49.142;9.124;2023-12-20T05:22:50;99827.04;;;6.34;80.22
79174;BME280;68599;49.142;9.124;2023-12-20T05:25:17;99831.17;;;6.36;80.16
79174;BME280;68599;49.142;9.124;2023-12-20T05:27:43;99836.69;;;6.28;80.46
79174;BME280;68599;49.142;9.124;2023-12-20T05:30:11;99838.48;;;6.32;80.21
79174;BME280;68599;49.142;9.124;2023-12-20T05:32:38;99842.25;;;6.32;80.32
79174;BME280;68599;49.142;9.124;2023-12-20T05:35:04;99848.33;;;6.34;80.33
79174;BME280;68599;49.142;9.124;2023-12-20T05:37:31;99854.59;;;6.30;80.77
79174;BME280;68599;49.142;9.124;2023-12-20T05:39:58;99861.23;;;6.40;80.38
79174;BME280;68599;49.142;9.124;2023-12-20T05:42:24;99868.03;;;6.36;80.58
79174;BME280;68599;49.142;9.124;2023-12-20T05:44:51;99870.17;;;6.33;80.67
79174;BME280;68599;49.142;9.124;2023-12-20T05:47:20;99869.65;;;6.38;80.58
79174;BME280;68599;49.142;9.124;2023-12-20T05:49:47;99870.71;;;6.36;80.91
79174;BME280;68599;49.142;9.124;2023-12-20T05:52:14;99869.83;;;6.38;80.91
79174;BME280;68599;49.142;9.124;2023-12-20T05:54:41;99874.13;;;6.43;80.78
79174;BME280;68599;49.142;9.124;2023-12-20T05:57:08;99880.04;;;6.40;80.53
79174;BME280;68599;49.142;9.124;2023-12-20T05:59:34;99880.55;;;6.36;80.91
79174;BME280;68599;49.142;9.124;2023-12-20T06:02:03;99886.33;;;6.45;80.54
79174;BME280;68599;49.142;9.124;2023-12-20T06:04:30;99884.70;;;6.44;80.58
79174;BME280;68599;49.142;9.124;2023-12-20T06:06:57;99883.27;;;6.42;80.62
79174;BME280;68599;49.142;9.124;2023-12-20T06:09:23;99888.84;;;6.52;80.28
79174;BME280;68599;49.142;9.124;2023-12-20T06:11:50;99878.45;;;6.52;80.22
79174;BME280;68599;49.142;9.124;2023-12-20T06:14:17;99886.34;;;6.51;79.99
79174;BME280;68599;49.142;9.124;2023-12-20T06:16:45;99892.41;;;6.48;80.34
79174;BME280;68599;49.142;9.124;2023-12-20T06:19:12;99886.32;;;6.47;79.93
79174;BME280;68599;49.142;9.124;2023-12-20T06:21:38;99893.48;;;6.47;80.27
79174;BME280;68599;49.142;9.124;2023-12-20T06:24:08;99896.73;;;6.57;79.75
79174;BME280;68599;49.142;9.124;2023-12-20T06:26:36;99895.50;;;6.62;79.54
79174;BME280;68599;49.142;9.124;2023-12-20T06:29:02;99902.66;;;6.60;79.46
79174;BME280;68599;49.142;9.124;2023-12-20T06:31:29;99904.10;;;6.63;79.16
79174;BME280;68599;49.142;9.124;2023-12-20T06:33:55;99901.77;;;6.64;79.37
79174;BME280;68599;49.142;9.124;2023-12-20T06:36:24;99902.66;;;6.60;79.41
79174;BME280;68599;49.142;9.124;2023-12-20T06:38:51;99906.21;;;6.52;79.89
79174;BME280;68599;49.142;9.124;2023-12-20T06:41:18;99915.87;;;6.50;79.91
79174;BME280;68599;49.142;9.124;2023-12-20T06:43:44;99913.03;;;6.55;79.87
79174;BME280;68599;49.142;9.124;2023-12-20T06:46:16;99914.45;;;6.53;79.79
79174;BME280;68599;49.142;9.124;2023-12-20T06:48:43;99914.30;;;6.58;79.55
79174;BME280;68599;49.142;9.124;2023-12-20T06:51:16;99925.89;;;6.50;80.07
79174;BME280;68599;49.142;9.124;2023-12-20T06:53:43;99924.31;;;6.54;80.00
79174;BME280;68599;49.142;9.124;2023-12-20T06:56:10;99929.32;;;6.54;80.10
79174;BME280;68599;49.142;9.124;2023-12-20T06:58:43;99932.54;;;6.58;79.88
79174;BME280;68599;49.142;9.124;2023-12-20T07:01:14;99940.63;;;6.65;79.40
79174;BME280;68599;49.142;9.124;2023-12-20T07:03:41;99949.55;;;6.56;79.83
79174;BME280;68599;49.142;9.124;2023-12-20T07:06:08;99953.33;;;6.61;79.61
79174;BME280;68599;49.142;9.124;2023-12-20T07:08:35;99960.86;;;6.65;79.43
79174;BME280;68599;49.142;9.124;2023-12-20T07:11:01;99963.18;;;6.64;79.54
79174;BME280;68599;49.142;9.124;2023-12-20T07:13:29;99960.33;;;6.64;79.63
79174;BME280;68599;49.142;9.124;2023-12-20T07:15:56;99961.39;;;6.60;79.75
79174;BME280;68599;49.142;9.124;2023-12-20T07:18:23;99963.20;;;6.68;79.41
79174;BME280;68599;49.142;9.124;2023-12-20T07:20:50;99970.02;;;6.73;78.83
79174;BME280;68599;49.142;9.124;2023-12-20T07:23:16;99969.08;;;6.59;79.47
79174;BME280;68599;49.142;9.124;2023-12-20T07:25:43;99968.36;;;6.59;79.65
79174;BME280;68599;49.142;9.124;2023-12-20T07:28:09;99967.69;;;6.67;79.37
79174;BME280;68599;49.142;9.124;2023-12-20T07:30:36;99971.08;;;6.67;79.56
79174;BME280;68599;49.142;9.124;2023-12-20T07:33:03;99971.98;;;6.73;79.21
79174;BME280;68599;49.142;9.124;2023-12-20T07:35:31;99971.61;;;6.68;79.27
79174;BME280;68599;49.142;9.124;2023-12-20T07:37:57;99975.90;;;6.66;79.51
79174;BME280;68599;49.142;9.124;2023-12-20T07:40:24;99981.11;;;6.69;79.07
79174;BME280;68599;49.142;9.124;2023-12-20T07:42:51;99979.71;;;6.77;78.86
79174;BME280;68599;49.142;9.124;2023-12-20T07:45:18;99987.42;;;6.78;78.92
79174;BME280;68599;49.142;9.124;2023-12-20T07:47:44;99987.42;;;6.81;78.92
79174;BME280;68599;49.142;9.124;2023-12-20T07:50:11;99994.42;;;6.85;78.65
79174;BME280;68599;49.142;9.124;2023-12-20T07:52:38;99995.70;;;6.89;78.62
79174;BME280;68599;49.142;9.124;2023-12-20T07:55:06;99998.23;;;6.98;78.05
79174;BME280;68599;49.142;9.124;2023-12-20T07:57:32;99999.14;;;7.04;77.67
79174;BME280;68599;49.142;9.124;2023-12-20T07:59:59;99997.70;;;7.01;77.27
79174;BME280;68599;49.142;9.124;2023-12-20T08:02:26;99997.88;;;7.02;76.92
79174;BME280;68599;49.142;9.124;2023-12-20T08:04:52;99987.88;;;7.12;76.25
79174;BME280;68599;49.142;9.124;2023-12-20T08:07:19;99988.08;;;7.17;75.83
79174;BME280;68599;49.142;9.124;2023-12-20T08:09:45;99984.52;;;7.39;75.71
79174;BME280;68599;49.142;9.124;2023-12-20T08:12:12;99988.52;;;8.64;72.79
79174;BME280;68599;49.142;9.124;2023-12-20T08:14:39;99994.91;;;9.18;70.26
79174;BME280;68599;49.142;9.124;2023-12-20T08:17:05;99995.81;;;8.81;69.87
79174;BME280;68599;49.142;9.124;2023-12-20T08:19:32;99996.66;;;8.39;70.17
79174;BME280;68599;49.142;9.124;2023-12-20T08:21:59;99993.13;;;8.04;70.91
79174;BME280;68599;49.142;9.124;2023-12-20T08:24:25;99989.61;;;8.80;70.20
79174;BME280;68599;49.142;9.124;2023-12-20T08:26:52;99986.39;;;9.76;67.07
79174;BME280;68599;49.142;9.124;2023-12-20T08:29:19;99993.44;;;9.24;67.92
79174;BME280;68599;49.142;9.124;2023-12-20T08:31:45;99995.02;;;9.55;66.29
79174;BME280;68599;49.142;9.124;2023-12-20T08:34:13;99989.19;;;9.39;65.81
79174;BME280;68599;49.142;9.124;2023-12-20T08:36:41;99988.02;;;10.16;64.15
79174;BME280;68599;49.142;9.124;2023-12-20T08:39:08;99987.16;;;10.12;63.00
79174;BME280;68599;49.142;9.124;2023-12-20T08:41:35;99988.27;;;9.39;63.89
79174;BME280;68599;49.142;9.124;2023-12-20T08:44:03;99996.22;;;9.07;64.69
79174;BME280;68599;49.142;9.124;2023-12-20T08:46:30;99996.84;;;10.13;62.96
79174;BME280;68599;49.142;9.124;2023-12-20T08:48:57;99991.02;;;12.44;58.02
79174;BME280;68599;49.142;9.124;2023-12-20T08:51:24;99981.68;;;14.65;52.33
79174;BME280;68599;49.142;9.124;2023-12-20T08:53:52;99972.96;;;15.96;48.02
79174;BME280;68599;49.142;9.124;2023-12-20T08:56:19;99965.39;;;16.62;44.57
79174;BME280;68599;49.142;9.124;2023-12-20T08:58:46;99970.27;;;17.02;43.78
79174;BME280;68599;49.142;9.124;2023-12-20T09:01:14;99964.45;;;18.44;41.31
79174;BME280;68599;49.142;9.124;2023-12-20T09:03:41;99958.70;;;19.18;37.69
79174;BME280;68599;49.142;9.124;2023-12-20T09:06:07;99960.83;;;19.73;36.08
79174;BME280;68599;49.142;9.124;2023-12-20T09:08:34;99956.95;;;20.13;34.37
79174;BME280;68599;49.142;9.124;2023-12-20T09:11:00;99958.70;;;20.30;34.03
79174;BME280;68599;49.142;9.124;2023-12-20T09:13:27;99957.70;;;20.66;33.36
79174;BME280;68599;49.142;9.124;2023-12-20T09:15:56;99957.24;;;20.95;32.65
79174;BME280;68599;49.142;9.124;2023-12-20T09:18:23;99960.58;;;21.44;31.66
79174;BME280;68599;49.142;9.124;2023-12-20T09:20:49;99955.27;;;21.69;31.23
79174;BME280;68599;49.142;9.124;2023-12-20T09:23:16;99951.90;;;22.05;29.12
79174;BME280;68599;49.142;9.124;2023-12-20T09:25:44;99957.43;;;21.57;29.64
79174;BME280;68599;49.142;9.124;2023-12-20T09:28:11;99953.34;;;21.42;30.13
79174;BME280;68599;49.142;9.124;2023-12-20T09:30:37;99958.46;;;21.20;30.72
79174;BME280;68599;49.142;9.124;2023-12-20T09:33:07;99958.44;;;21.42;29.90
79174;BME280;68599;49.142;9.124;2023-12-20T09:35:34;99960.48;;;21.45;29.40
79174;BME280;68599;49.142;9.124;2023-12-20T09:38:01;99962.44;;;21.16;30.13
79174;BME280;68599;49.142;9.124;2023-12-20T09:40:28;99961.80;;;22.02;28.67
79174;BME280;68599;49.142;9.124;2023-12-20T09:42:56;99962.83;;;22.09;27.83
79174;BME280;68599;49.142;9.124;2023-12-20T09:45:24;99958.38;;;22.01;27.72
79174;BME280;68599;49.142;9.124;2023-12-20T09:47:55;99967.00;;;21.76;28.40
79174;BME280;68599;49.142;9.124;2023-12-20T09:50:22;99975.10;;;22.31;28.43
79174;BME280;68599;49.142;9.124;2023-12-20T09:52:51;99969.27;;;22.87;26.55
79174;BME280;68599;49.142;9.124;2023-12-20T09:55:19;99973.98;;;22.38;27.07
79174;BME280;68599;49.142;9.124;2023-12-20T09:57:47;99972.91;;;22.62;26.91
79174;BME280;68599;49.142;9.124;2023-12-20T10:00:15;99975.50;;;23.12;26.24
79174;BME280;68599;49.142;9.124;2023-12-20T10:05:18;99970.66;;;23.24;26.49
79174;BME280;68599;49.142;9.124;2023-12-20T10:07:47;99969.23;;;23.97;24.98
79174;BME280;68599;49.142;9.124;2023-12-20T10:10:14;99967.67;;;24.65;24.81
79174;BME280;68599;49.142;9.124;2023-12-20T10:15:30;99961.96;;;23.84;24.65
79174;BME280;68599;49.142;9.124;2023-12-20T10:17:57;99966.83;;;22.28;26.83
79174;BME280;68599;49.142;9.124;2023-12-20T10:20:28;99960.60;;;21.63;28.44
79174;BME280;68599;49.142;9.124;2023-12-20T10:22:57;99960.36;;;22.29;26.43
79174;BME280;68599;49.142;9.124;2023-12-20T10:25:25;99960.08;;;22.76;25.49
79174;BME280;68599;49.142;9.124;2023-12-20T10:28:14;99962.26;;;21.59;27.30
79174;BME280;68599;49.142;9.124;2023-12-20T10:30:43;99960.94;;;21.86;27.28
79174;BME280;68599;49.142;9.124;2023-12-20T10:33:10;99954.10;;;23.33;25.31
79174;BME280;68599;49.142;9.124;2023-12-20T10:35:39;99955.33;;;23.30;25.24
79174;BME280;68599;49.142;9.124;2023-12-20T10:38:11;99956.10;;;21.30;27.53
79174;BME280;68599;49.142;9.124;2023-12-20T10:40:38;99967.82;;;19.17;30.27
79174;BME280;68599;49.142;9.124;2023-12-20T10:43:05;99969.76;;;17.70;32.82
79174;BME280;68599;49.142;9.124;2023-12-20T10:45:33;99970.23;;;17.07;33.84
79174;BME280;68599;49.142;9.124;2023-12-20T10:48:01;99963.05;;;17.77;33.07
79174;BME280;68599;49.142;9.124;2023-12-20T10:50:29;99957.85;;;19.51;31.04
79174;BME280;68599;49.142;9.124;2023-12-20T10:52:57;99952.47;;;20.98;28.43
79174;BME280;68599;49.142;9.124;2023-12-20T10:55:25;99957.02;;;21.83;27.60
79174;BME280;68599;49.142;9.124;2023-12-20T10:57:54;99955.23;;;22.77;26.29
79174;BME280;68599;49.142;9.124;2023-12-20T11:00:23;99950.16;;;23.62;25.04
79174;BME280;68599;49.142;9.124;2023-12-20T11:02:50;99948.83;;;24.29;24.41
79174;BME280;68599;49.142;9.124;2023-12-20T11:11:12;99933.23;;;23.71;24.10
79174;BME280;68599;49.142;9.124;2023-12-20T11:13:43;99932.57;;;23.81;23.59
79174;BME280;68599;49.142;9.124;2023-12-20T11:16:14;99934.08;;;23.47;24.19
79174;BME280;68599;49.142;9.124;2023-12-20T11:18:41;99930.45;;;21.90;25.37
79174;BME280;68599;49.142;9.124;2023-12-20T11:21:07;99937.02;;;18.06;30.91
79174;BME280;68599;49.142;9.124;2023-12-20T11:23:34;99952.13;;;15.64;34.80
79174;BME280;68599;49.142;9.124;2023-12-20T11:26:02;99945.90;;;14.01;38.04
79174;BME280;68599;49.142;9.124;2023-12-20T11:28:29;99950.54;;;14.41;38.56
79174;BME280;68599;49.142;9.124;2023-12-20T11:31:00;99940.50;;;15.72;36.31
79174;BME280;68599;49.142;9.124;2023-12-20T11:33:38;99945.03;;;14.91;37.21
79174;BME280;68599;49.142;9.124;2023-12-20T11:36:15;99947.99;;;13.61;39.73
79174;BME280;68599;49.142;9.124;2023-12-20T11:38:54;99942.36;;;12.84;41.73
79174;BME280;68599;49.142;9.124;2023-12-20T11:41:23;99938.33;;;12.05;43.53
79174;BME280;68599;49.142;9.124;2023-12-20T11:43:53;99936.95;;;11.82;44.36
79174;BME280;68599;49.142;9.124;2023-12-20T11:46:19;99930.44;;;11.59;44.96
79174;BME280;68599;49.142;9.124;2023-12-20T11:48:47;99923.54;;;13.00;42.49
79174;BME280;68599;49.142;9.124;2023-12-20T11:51:15;99927.14;;;12.93;42.01
79174;BME280;68599;49.142;9.124;2023-12-20T11:53:41;99929.92;;;13.74;40.54
79174;BME280;68599;49.142;9.124;2023-12-20T11:56:11;99913.94;;;16.30;35.71
79174;BME280;68599;49.142;9.124;2023-12-20T11:58:39;99909.30;;;17.61;33.55
79174;BME280;68599;49.142;9.124;2023-12-20T12:01:06;99903.64;;;18.45;32.66
79174;BME280;68599;49.142;9.124;2023-12-20T12:03:35;99903.08;;;19.61;30.10
79174;BME280;68599;49.142;9.124;2023-12-20T12:06:02;99907.20;;;18.80;30.65
79174;BME280;68599;49.142;9.124;2023-12-20T12:08:31;99910.79;;;17.86;32.05
79174;BME280;68599;49.142;9.124;2023-12-20T12:10:58;99902.96;;;17.55;32.80
79174;BME280;68599;49.142;9.124;2023-12-20T12:13:25;99910.01;;;17.47;33.29
79174;BME280;68599;49.142;9.124;2023-12-20T12:15:55;99916.38;;;16.39;35.33
79174;BME280;68599;49.142;9.124;2023-12-20T12:18:22;99919.40;;;15.51;36.82
79174;BME280;68599;49.142;9.124;2023-12-20T12:20:48;99926.25;;;14.30;39.01
79174;BME280;68599;49.142;9.124;2023-12-20T12:23:23;99931.54;;;12.74;42.69
79174;BME280;68599;49.142;9.124;2023-12-20T12:25:50;99926.05;;;11.95;44.68
79174;BME280;68599;49.142;9.124;2023-12-20T12:28:17;99921.07;;;12.19;45.01
79174;BME280;68599;49.142;9.124;2023-12-20T12:30:56;99917.73;;;12.43;45.11
79174;BME280;68599;49.142;9.124;2023-12-20T12:33:26;99911.35;;;13.73;42.42
79174;BME280;68599;49.142;9.124;2023-12-20T12:35:54;99918.05;;;13.65;42.43
79174;BME280;68599;49.142;9.124;2023-12-20T12:38:21;99914.28;;;14.46;40.91
79174;BME280;68599;49.142;9.124;2023-12-20T12:40:49;99912.63;;;15.47;39.01
79174;BME280;68599;49.142;9.124;2023-12-20T12:43:16;99913.15;;;16.02;38.34
79174;BME280;68599;49.142;9.124;2023-12-20T12:45:43;99916.16;;;15.14;39.33
79174;BME280;68599;49.142;9.124;2023-12-20T12:48:10;99918.96;;;14.40;41.18
79174;BME280;68599;49.142;9.124;2023-12-20T12:50:36;99917.67;;;13.20;43.58
79174;BME280;68599;49.142;9.124;2023-12-20T12:53:03;99923.90;;;12.31;45.46
79174;BME280;68599;49.142;9.124;2023-12-20T12:55:30;99922.16;;;11.35;48.17
79174;BME280;68599;49.142;9.124;2023-12-20T12:57:56;99919.14;;;11.77;47.96
79174;BME280;68599;49.142;9.124;2023-12-20T13:00:23;99926.82;;;11.25;49.80
79174;BME280;68599;49.142;9.124;2023-12-20T13:02:51;99930.24;;;10.88;51.58
79174;BME280;68599;49.142;9.124;2023-12-20T13:05:18;99925.21;;;10.86;52.44
79174;BME280;68599;49.142;9.124;2023-12-20T13:07:45;99914.36;;;11.93;50.32
79174;BME280;68599;49.142;9.124;2023-12-20T13:10:13;99916.92;;;12.64;48.51
79174;BME280;68599;49.142;9.124;2023-12-20T13:12:43;99914.86;;;11.63;50.53
79174;BME280;68599;49.142;9.124;2023-12-20T13:15:09;99918.08;;;10.82;52.37
79174;BME280;68599;49.142;9.124;2023-12-20T13:17:36;99923.07;;;10.11;54.17
79174;BME280;68599;49.142;9.124;2023-12-20T13:20:05;99923.02;;;9.60;55.14